sensor_id;sensor_type;location;lat;lon;timestamp;P1;durP1;ratioP1;P2;durP2;ratioP2
7158;SDS011;63175;52.374;13.132;2023-04-06T00:00:13;2.60;;;2.37;;
7158;SDS011;63175;52.374;13.132;2023-04-06T00:02:40;5.30;;;3.43;;
7158;SDS011;63175;52.374;13.132;2023-04-06T00:05:09;3.37;;;3.07;;
7158;SDS011;63175;52.374;13.132;2023-04-06T00:07:36;2.37;;;2.00;;
7158;SDS011;63175;52.374;13.132;2023-04-06T00:10:03;2.93;;;2.60;;
7158;SDS011;63175;52.374;13.132;2023-04-06T00:12:31;3.37;;;2.43;;
7158;SDS011;63175;52.374;13.132;2023-04-06T00:14:57;3.77;;;2.67;;
7158;SDS011;63175;52.374;13.132;2023-04-06T00:17:26;4.03;;;2.63;;
7158;SDS011;63175;52.374;13.132;2023-04-06T00:19:53;4.70;;;2.33;;
7158;SDS011;63175;52.374;13.132;2023-04-06T00:22:21;2.83;;;2.63;;
7158;SDS011;63175;52.374;13.132;2023-04-06T00:24:48;2.50;;;2.30;;
7158;SDS011;63175;52.374;13.132;2023-04-06T00:27:15;5.60;;;2.77;;
7158;SDS011;63175;52.374;13.132;2023-04-06T00:29:43;3.20;;;2.50;;
7158;SDS011;63175;52.374;13.132;2023-04-06T00:32:11;4.00;;;2.67;;
7158;SDS011;63175;52.374;13.132;2023-04-06T00:34:37;5.03;;;2.83;;
7158;SDS011;63175;52.374;13.132;2023-04-06T00:37:05;9.10;;;2.87;;
7158;SDS011;63175;52.374;13.132;2023-04-06T00:39:33;3.30;;;3.00;;
7158;SDS011;63175;52.374;13.132;2023-04-06T00:42:00;6.20;;;4.00;;
7158;SDS011;63175;52.374;13.132;2023-04-06T00:44:36;3.70;;;3.40;;
7158;SDS011;63175;52.374;13.132;2023-04-06T00:47:03;4.00;;;2.97;;
7158;SDS011;63175;52.374;13.132;2023-04-06T00:49:31;3.07;;;2.80;;
7158;SDS011;63175;52.374;13.132;2023-04-06T00:51:58;4.03;;;3.60;;
7158;SDS011;63175;52.374;13.132;2023-04-06T00:54:26;3.77;;;2.63;;
7158;SDS011;63175;52.374;13.132;2023-04-06T00:56:54;3.10;;;2.80;;
7158;SDS011;63175;52.374;13.132;2023-04-06T00:59:22;9.93;;;3.47;;
7158;SDS011;63175;52.374;13.132;2023-04-06T01:01:49;4.97;;;3.00;;
7158;SDS011;63175;52.374;13.132;2023-04-06T01:04:16;3.47;;;2.70;;
7158;SDS011;63175;52.374;13.132;2023-04-06T01:06:43;4.37;;;2.70;;
7158;SDS011;63175;52.374;13.132;2023-04-06T01:09:10;3.17;;;2.53;;
7158;SDS011;63175;52.374;13.132;2023-04-06T01:11:37;3.07;;;2.77;;
7158;SDS011;63175;52.374;13.132;2023-04-06T01:14:05;2.83;;;2.63;;
7158;SDS011;63175;52.374;13.132;2023-04-06T01:16:33;3.20;;;2.90;;
7158;SDS011;63175;52.374;13.132;2023-04-06T01:19:00;3.33;;;3.03;;
7158;SDS011;63175;52.374;13.132;2023-04-06T01:21:27;4.57;;;3.50;;
7158;SDS011;63175;52.374;13.132;2023-04-06T01:23:56;4.60;;;3.20;;
7158;SDS011;63175;52.374;13.132;2023-04-06T01:26:23;4.00;;;3.37;;
7158;SDS011;63175;52.374;13.132;2023-04-06T01:28:51;3.73;;;3.17;;
7158;SDS011;63175;52.374;13.132;2023-04-06T01:31:18;3.57;;;3.23;;
7158;SDS011;63175;52.374;13.132;2023-04-06T01:33:45;5.87;;;4.30;;
7158;SDS011;63175;52.374;13.132;2023-04-06T01:36:12;3.73;;;3.43;;
7158;SDS011;63175;52.374;13.132;2023-04-06T01:38:39;4.27;;;2.93;;
7158;SDS011;63175;52.374;13.132;2023-04-06T01:41:08;3.60;;;2.77;;
7158;SDS011;63175;52.374;13.132;2023-04-06T01:43:35;2.70;;;2.50;;
7158;SDS011;63175;52.374;13.132;2023-04-06T01:46:02;4.40;;;2.83;;
7158;SDS011;63175;52.374;13.132;2023-04-06T01:48:30;3.40;;;3.10;;
7158;SDS011;63175;52.374;13.132;2023-04-06T01:50:58;2.93;;;2.70;;
7158;SDS011;63175;52.374;13.132;2023-04-06T01:53:25;3.10;;;2.90;;
7158;SDS011;63175;52.374;13.132;2023-04-06T01:55:52;3.37;;;3.17;;
7158;SDS011;63175;52.374;13.132;2023-04-06T01:58:20;4.60;;;4.10;;
7158;SDS011;63175;52.374;13.132;2023-04-06T02:00:47;3.83;;;3.53;;
7158;SDS011;63175;52.374;13.132;2023-04-06T02:03:14;5.80;;;3.53;;
7158;SDS011;63175;52.374;13.132;2023-04-06T02:05:41;3.70;;;3.30;;
7158;SDS011;63175;52.374;13.132;2023-04-06T02:08:08;6.50;;;3.37;;
7158;SDS011;63175;52.374;13.132;2023-04-06T02:10:35;5.30;;;3.63;;
7158;SDS011;63175;52.374;13.132;2023-04-06T02:13:02;5.83;;;4.23;;
7158;SDS011;63175;52.374;13.132;2023-04-06T02:15:30;3.87;;;3.30;;
7158;SDS011;63175;52.374;13.132;2023-04-06T02:17:57;3.50;;;3.20;;
7158;SDS011;63175;52.374;13.132;2023-04-06T02:20:25;3.63;;;3.27;;
7158;SDS011;63175;52.374;13.132;2023-04-06T02:22:51;3.20;;;3.00;;
7158;SDS011;63175;52.374;13.132;2023-04-06T02:25:18;5.23;;;3.17;;
7158;SDS011;63175;52.374;13.132;2023-04-06T02:27:46;3.60;;;3.30;;
7158;SDS011;63175;52.374;13.132;2023-04-06T02:30:13;2.60;;;2.40;;
7158;SDS011;63175;52.374;13.132;2023-04-06T02:32:41;8.53;;;3.90;;
7158;SDS011;63175;52.374;13.132;2023-04-06T02:35:08;4.30;;;3.27;;
7158;SDS011;63175;52.374;13.132;2023-04-06T02:37:35;4.90;;;3.53;;
7158;SDS011;63175;52.374;13.132;2023-04-06T02:40:02;5.17;;;3.13;;
7158;SDS011;63175;52.374;13.132;2023-04-06T02:42:31;3.43;;;3.13;;
7158;SDS011;63175;52.374;13.132;2023-04-06T02:44:58;7.07;;;3.67;;
7158;SDS011;63175;52.374;13.132;2023-04-06T02:47:25;4.27;;;2.63;;
7158;SDS011;63175;52.374;13.132;2023-04-06T02:49:53;5.87;;;3.33;;
7158;SDS011;63175;52.374;13.132;2023-04-06T02:52:20;4.17;;;3.40;;
7158;SDS011;63175;52.374;13.132;2023-04-06T02:54:47;4.43;;;3.57;;
7158;SDS011;63175;52.374;13.132;2023-04-06T02:57:16;3.53;;;3.23;;
7158;SDS011;63175;52.374;13.132;2023-04-06T02:59:43;4.00;;;3.60;;
7158;SDS011;63175;52.374;13.132;2023-04-06T03:02:10;4.63;;;3.10;;
7158;SDS011;63175;52.374;13.132;2023-04-06T03:04:37;3.93;;;3.37;;
7158;SDS011;63175;52.374;13.132;2023-04-06T03:07:05;5.00;;;3.43;;
7158;SDS011;63175;52.374;13.132;2023-04-06T03:09:32;4.00;;;3.67;;
7158;SDS011;63175;52.374;13.132;2023-04-06T03:11:59;2.90;;;2.70;;
7158;SDS011;63175;52.374;13.132;2023-04-06T03:14:27;4.93;;;2.80;;
7158;SDS011;63175;52.374;13.132;2023-04-06T03:16:54;3.90;;;3.17;;
7158;SDS011;63175;52.374;13.132;2023-04-06T03:19:21;3.73;;;3.30;;
7158;SDS011;63175;52.374;13.132;2023-04-06T03:21:48;5.30;;;3.53;;
7158;SDS011;63175;52.374;13.132;2023-04-06T03:24:17;4.27;;;3.40;;
7158;SDS011;63175;52.374;13.132;2023-04-06T03:26:44;3.43;;;3.13;;
7158;SDS011;63175;52.374;13.132;2023-04-06T03:29:11;7.17;;;3.10;;
7158;SDS011;63175;52.374;13.132;2023-04-06T03:31:38;3.73;;;3.03;;
7158;SDS011;63175;52.374;13.132;2023-04-06T03:34:05;3.80;;;2.90;;
7158;SDS011;63175;52.374;13.132;2023-04-06T03:36:33;4.40;;;3.80;;
7158;SDS011;63175;52.374;13.132;2023-04-06T03:39:00;3.13;;;2.60;;
7158;SDS011;63175;52.374;13.132;2023-04-06T03:41:29;3.80;;;3.43;;
7158;SDS011;63175;52.374;13.132;2023-04-06T03:43:56;3.30;;;3.10;;
7158;SDS011;63175;52.374;13.132;2023-04-06T03:46:23;5.90;;;3.40;;
7158;SDS011;63175;52.374;13.132;2023-04-06T03:48:50;6.73;;;3.43;;
7158;SDS011;63175;52.374;13.132;2023-04-06T03:51:17;5.10;;;3.70;;
7158;SDS011;63175;52.374;13.132;2023-04-06T03:53:44;6.30;;;3.00;;
7158;SDS011;63175;52.374;13.132;2023-04-06T03:56:11;5.90;;;4.00;;
7158;SDS011;63175;52.374;13.132;2023-04-06T03:58:39;3.90;;;3.50;;
7158;SDS011;63175;52.374;13.132;2023-04-06T04:01:06;4.40;;;3.83;;
7158;SDS011;63175;52.374;13.132;2023-04-06T04:03:33;3.70;;;3.40;;
7158;SDS011;63175;52.374;13.132;2023-04-06T04:06:00;5.37;;;3.60;;
7158;SDS011;63175;52.374;13.132;2023-04-06T04:08:27;4.30;;;3.90;;
7158;SDS011;63175;52.374;13.132;2023-04-06T04:10:54;4.00;;;3.60;;
7158;SDS011;63175;52.374;13.132;2023-04-06T04:13:21;4.10;;;3.70;;
7158;SDS011;63175;52.374;13.132;2023-04-06T04:15:49;3.27;;;3.07;;
7158;SDS011;63175;52.374;13.132;2023-04-06T04:18:16;4.83;;;3.40;;
7158;SDS011;63175;52.374;13.132;2023-04-06T04:20:43;6.40;;;3.90;;
7158;SDS011;63175;52.374;13.132;2023-04-06T04:23:10;3.87;;;3.47;;
7158;SDS011;63175;52.374;13.132;2023-04-06T04:25:37;4.97;;;3.93;;
7158;SDS011;63175;52.374;13.132;2023-04-06T04:28:04;6.70;;;3.90;;
7158;SDS011;63175;52.374;13.132;2023-04-06T04:30:31;10.63;;;4.17;;
7158;SDS011;63175;52.374;13.132;2023-04-06T04:32:59;4.03;;;3.40;;
7158;SDS011;63175;52.374;13.132;2023-04-06T04:35:26;4.87;;;3.77;;
7158;SDS011;63175;52.374;13.132;2023-04-06T04:37:53;4.70;;;3.57;;
7158;SDS011;63175;52.374;13.132;2023-04-06T04:40:20;3.60;;;3.20;;
7158;SDS011;63175;52.374;13.132;2023-04-06T04:42:48;3.20;;;3.00;;
7158;SDS011;63175;52.374;13.132;2023-04-06T04:45:16;4.83;;;3.30;;
7158;SDS011;63175;52.374;13.132;2023-04-06T04:47:43;6.00;;;3.83;;
7158;SDS011;63175;52.374;13.132;2023-04-06T04:50:11;9.20;;;3.90;;
7158;SDS011;63175;52.374;13.132;2023-04-06T04:52:38;4.83;;;4.00;;
7158;SDS011;63175;52.374;13.132;2023-04-06T04:55:05;9.50;;;4.90;;
7158;SDS011;63175;52.374;13.132;2023-04-06T04:57:32;8.10;;;4.13;;
7158;SDS011;63175;52.374;13.132;2023-04-06T04:59:59;5.93;;;4.50;;
7158;SDS011;63175;52.374;13.132;2023-04-06T05:02:27;4.20;;;3.80;;
7158;SDS011;63175;52.374;13.132;2023-04-06T05:04:54;5.87;;;3.57;;
7158;SDS011;63175;52.374;13.132;2023-04-06T05:07:22;6.37;;;3.73;;
7158;SDS011;63175;52.374;13.132;2023-04-06T05:09:49;6.20;;;4.43;;
7158;SDS011;63175;52.374;13.132;2023-04-06T05:12:16;5.17;;;4.13;;
7158;SDS011;63175;52.374;13.132;2023-04-06T05:14:44;5.60;;;4.60;;
7158;SDS011;63175;52.374;13.132;2023-04-06T05:17:11;5.53;;;4.40;;
7158;SDS011;63175;52.374;13.132;2023-04-06T05:19:38;5.93;;;4.53;;
7158;SDS011;63175;52.374;13.132;2023-04-06T05:22:05;7.13;;;4.33;;
7158;SDS011;63175;52.374;13.132;2023-04-06T05:24:33;6.77;;;4.40;;
7158;SDS011;63175;52.374;13.132;2023-04-06T05:27:00;4.40;;;3.77;;
7158;SDS011;63175;52.374;13.132;2023-04-06T05:29:27;6.27;;;3.80;;
7158;SDS011;63175;52.374;13.132;2023-04-06T05:31:55;4.77;;;4.27;;
7158;SDS011;63175;52.374;13.132;2023-04-06T05:34:22;12.80;;;5.33;;
7158;SDS011;63175;52.374;13.132;2023-04-06T05:36:49;7.90;;;5.97;;
7158;SDS011;63175;52.374;13.132;2023-04-06T05:39:16;5.63;;;4.63;;
7158;SDS011;63175;52.374;13.132;2023-04-06T05:41:45;5.20;;;4.33;;
7158;SDS011;63175;52.374;13.132;2023-04-06T05:44:12;9.90;;;4.87;;
7158;SDS011;63175;52.374;13.132;2023-04-06T05:46:39;7.53;;;5.20;;
7158;SDS011;63175;52.374;13.132;2023-04-06T05:49:06;6.47;;;4.63;;
7158;SDS011;63175;52.374;13.132;2023-04-06T05:51:33;4.43;;;3.97;;
7158;SDS011;63175;52.374;13.132;2023-04-06T05:54:00;4.17;;;3.87;;
7158;SDS011;63175;52.374;13.132;2023-04-06T05:56:27;4.23;;;3.83;;
7158;SDS011;63175;52.374;13.132;2023-04-06T05:58:56;5.17;;;4.40;;
7158;SDS011;63175;52.374;13.132;2023-04-06T06:01:23;5.57;;;4.00;;
7158;SDS011;63175;52.374;13.132;2023-04-06T06:03:50;5.50;;;3.70;;
7158;SDS011;63175;52.374;13.132;2023-04-06T06:06:17;8.33;;;3.87;;
7158;SDS011;63175;52.374;13.132;2023-04-06T06:08:44;4.83;;;4.17;;
7158;SDS011;63175;52.374;13.132;2023-04-06T06:11:11;5.23;;;3.63;;
7158;SDS011;63175;52.374;13.132;2023-04-06T06:13:39;3.27;;;2.80;;
7158;SDS011;63175;52.374;13.132;2023-04-06T06:16:07;5.30;;;3.40;;
7158;SDS011;63175;52.374;13.132;2023-04-06T06:18:34;3.43;;;3.00;;
7158;SDS011;63175;52.374;13.132;2023-04-06T06:21:01;3.60;;;3.00;;
7158;SDS011;63175;52.374;13.132;2023-04-06T06:23:29;3.53;;;3.23;;
7158;SDS011;63175;52.374;13.132;2023-04-06T06:25:56;4.00;;;3.30;;
7158;SDS011;63175;52.374;13.132;2023-04-06T06:28:23;4.40;;;3.50;;
7158;SDS011;63175;52.374;13.132;2023-04-06T06:30:51;3.23;;;2.90;;
7158;SDS011;63175;52.374;13.132;2023-04-06T06:33:19;5.70;;;3.97;;
7158;SDS011;63175;52.374;13.132;2023-04-06T06:35:46;3.40;;;3.10;;
7158;SDS011;63175;52.374;13.132;2023-04-06T06:38:13;3.87;;;3.57;;
7158;SDS011;63175;52.374;13.132;2023-04-06T06:40:40;7.33;;;3.67;;
7158;SDS011;63175;52.374;13.132;2023-04-06T06:43:07;4.50;;;4.17;;
7158;SDS011;63175;52.374;13.132;2023-04-06T06:45:34;5.40;;;4.40;;
7158;SDS011;63175;52.374;13.132;2023-04-06T06:48:01;5.63;;;4.00;;
7158;SDS011;63175;52.374;13.132;2023-04-06T06:50:30;5.70;;;3.80;;
7158;SDS011;63175;52.374;13.132;2023-04-06T06:52:57;4.03;;;3.67;;
7158;SDS011;63175;52.374;13.132;2023-04-06T06:55:24;6.20;;;4.17;;
7158;SDS011;63175;52.374;13.132;2023-04-06T06:57:51;3.80;;;3.50;;
7158;SDS011;63175;52.374;13.132;2023-04-06T07:00:18;3.83;;;3.53;;
7158;SDS011;63175;52.374;13.132;2023-04-06T07:02:46;4.37;;;3.80;;
7158;SDS011;63175;52.374;13.132;2023-04-06T07:05:13;3.97;;;3.63;;
7158;SDS011;63175;52.374;13.132;2023-04-06T07:07:42;5.07;;;4.40;;
7158;SDS011;63175;52.374;13.132;2023-04-06T07:10:10;5.17;;;4.67;;
7158;SDS011;63175;52.374;13.132;2023-04-06T07:12:37;4.43;;;4.03;;
7158;SDS011;63175;52.374;13.132;2023-04-06T07:15:04;8.47;;;5.63;;
7158;SDS011;63175;52.374;13.132;2023-04-06T07:17:32;7.30;;;5.87;;
7158;SDS011;63175;52.374;13.132;2023-04-06T07:19:59;8.73;;;6.60;;
7158;SDS011;63175;52.374;13.132;2023-04-06T07:22:26;5.77;;;4.80;;
7158;SDS011;63175;52.374;13.132;2023-04-06T07:24:54;8.30;;;5.60;;
7158;SDS011;63175;52.374;13.132;2023-04-06T07:27:21;7.60;;;5.23;;
7158;SDS011;63175;52.374;13.132;2023-04-06T07:29:48;9.70;;;5.00;;
7158;SDS011;63175;52.374;13.132;2023-04-06T07:32:15;7.10;;;4.80;;
7158;SDS011;63175;52.374;13.132;2023-04-06T07:34:42;5.27;;;4.63;;
7158;SDS011;63175;52.374;13.132;2023-04-06T07:37:10;5.20;;;4.23;;
7158;SDS011;63175;52.374;13.132;2023-04-06T07:39:37;4.27;;;3.97;;
7158;SDS011;63175;52.374;13.132;2023-04-06T07:42:05;5.93;;;4.60;;
7158;SDS011;63175;52.374;13.132;2023-04-06T07:44:32;6.07;;;4.30;;
7158;SDS011;63175;52.374;13.132;2023-04-06T07:46:59;6.03;;;4.83;;
7158;SDS011;63175;52.374;13.132;2023-04-06T07:49:26;11.57;;;4.90;;
7158;SDS011;63175;52.374;13.132;2023-04-06T07:51:53;6.10;;;4.83;;
7158;SDS011;63175;52.374;13.132;2023-04-06T07:54:21;5.27;;;4.63;;
7158;SDS011;63175;52.374;13.132;2023-04-06T07:56:47;4.97;;;4.50;;
7158;SDS011;63175;52.374;13.132;2023-04-06T07:59:16;5.80;;;5.17;;
7158;SDS011;63175;52.374;13.132;2023-04-06T08:01:43;5.23;;;4.17;;
7158;SDS011;63175;52.374;13.132;2023-04-06T08:04:10;5.80;;;4.80;;
7158;SDS011;63175;52.374;13.132;2023-04-06T08:06:37;5.90;;;5.03;;
7158;SDS011;63175;52.374;13.132;2023-04-06T08:09:04;7.53;;;4.80;;
7158;SDS011;63175;52.374;13.132;2023-04-06T08:11:30;4.40;;;3.93;;
7158;SDS011;63175;52.374;13.132;2023-04-06T08:13:57;5.83;;;4.60;;
7158;SDS011;63175;52.374;13.132;2023-04-06T08:16:26;12.20;;;6.37;;
7158;SDS011;63175;52.374;13.132;2023-04-06T08:18:53;4.80;;;4.37;;
7158;SDS011;63175;52.374;13.132;2023-04-06T08:21:20;3.50;;;3.20;;
7158;SDS011;63175;52.374;13.132;2023-04-06T08:23:47;4.27;;;3.47;;
7158;SDS011;63175;52.374;13.132;2023-04-06T08:26:14;5.43;;;3.40;;
7158;SDS011;63175;52.374;13.132;2023-04-06T08:28:41;6.17;;;3.13;;
7158;SDS011;63175;52.374;13.132;2023-04-06T08:31:08;3.70;;;3.00;;
7158;SDS011;63175;52.374;13.132;2023-04-06T08:33:36;4.17;;;3.43;;
7158;SDS011;63175;52.374;13.132;2023-04-06T08:36:08;3.57;;;2.93;;
7158;SDS011;63175;52.374;13.132;2023-04-06T08:38:35;5.07;;;2.70;;
7158;SDS011;63175;52.374;13.132;2023-04-06T08:41:08;5.30;;;3.40;;
7158;SDS011;63175;52.374;13.132;2023-04-06T08:43:38;5.03;;;2.37;;
7158;SDS011;63175;52.374;13.132;2023-04-06T08:46:09;3.80;;;2.40;;
7158;SDS011;63175;52.374;13.132;2023-04-06T08:48:40;7.73;;;2.77;;
7158;SDS011;63175;52.374;13.132;2023-04-06T08:51:07;3.80;;;2.33;;
7158;SDS011;63175;52.374;13.132;2023-04-06T08:53:35;2.80;;;2.17;;
7158;SDS011;63175;52.374;13.132;2023-04-06T08:56:02;4.60;;;2.57;;
7158;SDS011;63175;52.374;13.132;2023-04-06T08:58:32;2.97;;;2.50;;
7158;SDS011;63175;52.374;13.132;2023-04-06T09:01:00;2.30;;;2.17;;
7158;SDS011;63175;52.374;13.132;2023-04-06T09:03:30;4.83;;;2.10;;
7158;SDS011;63175;52.374;13.132;2023-04-06T09:06:02;2.80;;;1.60;;
7158;SDS011;63175;52.374;13.132;2023-04-06T09:08:30;4.60;;;2.33;;
7158;SDS011;63175;52.374;13.132;2023-04-06T09:10:57;3.87;;;2.00;;
7158;SDS011;63175;52.374;13.132;2023-04-06T09:13:23;5.03;;;2.40;;
7158;SDS011;63175;52.374;13.132;2023-04-06T09:15:58;2.57;;;2.47;;
7158;SDS011;63175;52.374;13.132;2023-04-06T09:18:28;2.20;;;1.70;;
7158;SDS011;63175;52.374;13.132;2023-04-06T09:20:56;1.90;;;1.80;;
7158;SDS011;63175;52.374;13.132;2023-04-06T09:23:26;1.70;;;1.60;;
7158;SDS011;63175;52.374;13.132;2023-04-06T09:26:04;2.10;;;1.90;;
7158;SDS011;63175;52.374;13.132;2023-04-06T09:28:40;4.27;;;2.40;;
7158;SDS011;63175;52.374;13.132;2023-04-06T09:31:08;5.03;;;3.37;;
7158;SDS011;63175;52.374;13.132;2023-04-06T09:33:37;3.20;;;2.13;;
7158;SDS011;63175;52.374;13.132;2023-04-06T09:36:05;3.47;;;1.83;;
7158;SDS011;63175;52.374;13.132;2023-04-06T09:38:36;2.47;;;2.30;;
7158;SDS011;63175;52.374;13.132;2023-04-06T09:41:03;4.47;;;3.17;;
7158;SDS011;63175;52.374;13.132;2023-04-06T09:43:30;3.43;;;3.00;;
7158;SDS011;63175;52.374;13.132;2023-04-06T09:45:57;2.50;;;2.30;;
7158;SDS011;63175;52.374;13.132;2023-04-06T09:48:28;2.63;;;2.43;;
7158;SDS011;63175;52.374;13.132;2023-04-06T09:50:58;4.63;;;3.00;;
7158;SDS011;63175;52.374;13.132;2023-04-06T09:53:27;2.53;;;2.33;;
7158;SDS011;63175;52.374;13.132;2023-04-06T09:55:58;2.33;;;2.13;;
7158;SDS011;63175;52.374;13.132;2023-04-06T09:58:31;2.50;;;2.20;;
7158;SDS011;63175;52.374;13.132;2023-04-06T10:01:02;4.10;;;2.80;;
7158;SDS011;63175;52.374;13.132;2023-04-06T10:03:36;3.27;;;2.97;;
7158;SDS011;63175;52.374;13.132;2023-04-06T10:06:11;2.60;;;2.37;;
7158;SDS011;63175;52.374;13.132;2023-04-06T10:08:41;5.23;;;3.13;;
7158;SDS011;63175;52.374;13.132;2023-04-06T10:11:13;4.90;;;2.17;;
7158;SDS011;63175;52.374;13.132;2023-04-06T10:13:41;2.50;;;2.30;;
7158;SDS011;63175;52.374;13.132;2023-04-06T10:16:09;2.20;;;2.00;;
7158;SDS011;63175;52.374;13.132;2023-04-06T10:18:36;3.57;;;3.07;;
7158;SDS011;63175;52.374;13.132;2023-04-06T10:21:09;2.43;;;2.23;;
7158;SDS011;63175;52.374;13.132;2023-04-06T10:23:40;2.50;;;2.30;;
7158;SDS011;63175;52.374;13.132;2023-04-06T10:26:13;3.87;;;2.13;;
7158;SDS011;63175;52.374;13.132;2023-04-06T10:28:42;4.20;;;3.13;;
7158;SDS011;63175;52.374;13.132;2023-04-06T10:31:10;4.13;;;2.10;;
7158;SDS011;63175;52.374;13.132;2023-04-06T10:33:37;3.73;;;1.97;;
7158;SDS011;63175;52.374;13.132;2023-04-06T10:36:09;2.30;;;2.10;;
7158;SDS011;63175;52.374;13.132;2023-04-06T10:38:37;3.10;;;2.60;;
7158;SDS011;63175;52.374;13.132;2023-04-06T10:41:05;3.13;;;2.83;;
7158;SDS011;63175;52.374;13.132;2023-04-06T10:43:35;3.90;;;2.47;;
7158;SDS011;63175;52.374;13.132;2023-04-06T10:46:03;2.73;;;2.50;;
7158;SDS011;63175;52.374;13.132;2023-04-06T10:48:38;1.90;;;1.80;;
7158;SDS011;63175;52.374;13.132;2023-04-06T10:51:09;2.53;;;2.20;;
7158;SDS011;63175;52.374;13.132;2023-04-06T10:53:37;4.63;;;2.63;;
7158;SDS011;63175;52.374;13.132;2023-04-06T10:56:09;2.73;;;2.53;;
7158;SDS011;63175;52.374;13.132;2023-04-06T10:58:38;4.20;;;2.27;;
7158;SDS011;63175;52.374;13.132;2023-04-06T11:01:11;6.47;;;2.63;;
7158;SDS011;63175;52.374;13.132;2023-04-06T11:03:45;3.13;;;2.63;;
7158;SDS011;63175;52.374;13.132;2023-04-06T11:06:17;4.53;;;2.87;;
7158;SDS011;63175;52.374;13.132;2023-04-06T11:08:45;2.20;;;1.80;;
7158;SDS011;63175;52.374;13.132;2023-04-06T11:11:13;3.87;;;3.00;;
7158;SDS011;63175;52.374;13.132;2023-04-06T11:13:45;4.47;;;2.47;;
7158;SDS011;63175;52.374;13.132;2023-04-06T11:16:17;2.37;;;2.10;;
7158;SDS011;63175;52.374;13.132;2023-04-06T11:18:51;1.83;;;1.73;;
7158;SDS011;63175;52.374;13.132;2023-04-06T11:21:33;6.30;;;2.83;;
7158;SDS011;63175;52.374;13.132;2023-04-06T11:24:08;3.10;;;2.57;;
7158;SDS011;63175;52.374;13.132;2023-04-06T11:26:37;3.67;;;3.00;;
7158;SDS011;63175;52.374;13.132;2023-04-06T11:29:06;2.97;;;2.30;;
7158;SDS011;63175;52.374;13.132;2023-04-06T11:31:37;2.43;;;2.23;;
7158;SDS011;63175;52.374;13.132;2023-04-06T11:34:11;1.90;;;1.80;;
7158;SDS011;63175;52.374;13.132;2023-04-06T11:36:42;2.90;;;1.80;;
7158;SDS011;63175;52.374;13.132;2023-04-06T11:39:10;3.53;;;2.17;;
7158;SDS011;63175;52.374;13.132;2023-04-06T11:41:37;3.67;;;2.70;;
7158;SDS011;63175;52.374;13.132;2023-04-06T11:44:06;5.33;;;2.50;;
7158;SDS011;63175;52.374;13.132;2023-04-06T11:46:33;3.47;;;2.17;;
7158;SDS011;63175;52.374;13.132;2023-04-06T11:49:00;3.37;;;2.40;;
7158;SDS011;63175;52.374;13.132;2023-04-06T11:51:28;2.67;;;2.17;;
7158;SDS011;63175;52.374;13.132;2023-04-06T11:53:55;2.00;;;1.90;;
7158;SDS011;63175;52.374;13.132;2023-04-06T11:56:26;2.20;;;2.00;;
7158;SDS011;63175;52.374;13.132;2023-04-06T11:58:56;1.93;;;1.83;;
7158;SDS011;63175;52.374;13.132;2023-04-06T12:01:26;1.37;;;1.27;;
7158;SDS011;63175;52.374;13.132;2023-04-06T12:03:53;3.57;;;1.50;;
7158;SDS011;63175;52.374;13.132;2023-04-06T12:06:20;1.70;;;1.60;;
7158;SDS011;63175;52.374;13.132;2023-04-06T12:08:47;2.97;;;2.60;;
7158;SDS011;63175;52.374;13.132;2023-04-06T12:11:14;1.73;;;1.63;;
7158;SDS011;63175;52.374;13.132;2023-04-06T12:13:41;2.37;;;2.17;;
7158;SDS011;63175;52.374;13.132;2023-04-06T12:16:08;1.30;;;1.20;;
7158;SDS011;63175;52.374;13.132;2023-04-06T12:18:36;2.03;;;1.70;;
7158;SDS011;63175;52.374;13.132;2023-04-06T12:21:04;2.83;;;1.70;;
7158;SDS011;63175;52.374;13.132;2023-04-06T12:23:31;2.40;;;1.70;;
7158;SDS011;63175;52.374;13.132;2023-04-06T12:25:58;1.90;;;1.80;;
7158;SDS011;63175;52.374;13.132;2023-04-06T12:28:26;2.17;;;1.87;;
7158;SDS011;63175;52.374;13.132;2023-04-06T12:30:54;3.00;;;2.80;;
7158;SDS011;63175;52.374;13.132;2023-04-06T12:33:21;1.90;;;1.80;;
7158;SDS011;63175;52.374;13.132;2023-04-06T12:35:49;4.40;;;2.50;;
7158;SDS011;63175;52.374;13.132;2023-04-06T12:38:16;2.40;;;2.20;;
7158;SDS011;63175;52.374;13.132;2023-04-06T12:40:43;2.30;;;2.20;;
7158;SDS011;63175;52.374;13.132;2023-04-06T12:43:10;2.73;;;2.33;;
7158;SDS011;63175;52.374;13.132;2023-04-06T12:45:38;2.33;;;2.23;;
7158;SDS011;63175;52.374;13.132;2023-04-06T12:48:05;2.30;;;1.80;;
7158;SDS011;63175;52.374;13.132;2023-04-06T12:50:32;2.27;;;1.93;;
7158;SDS011;63175;52.374;13.132;2023-04-06T12:53:01;2.90;;;2.23;;
7158;SDS011;63175;52.374;13.132;2023-04-06T12:55:29;3.83;;;2.53;;
7158;SDS011;63175;52.374;13.132;2023-04-06T12:57:59;2.10;;;1.90;;
7158;SDS011;63175;52.374;13.132;2023-04-06T13:00:26;2.43;;;1.87;;
7158;SDS011;63175;52.374;13.132;2023-04-06T13:02:53;2.83;;;1.90;;
7158;SDS011;63175;52.374;13.132;2023-04-06T13:05:20;4.97;;;3.03;;
7158;SDS011;63175;52.374;13.132;2023-04-06T13:07:47;2.80;;;2.50;;
7158;SDS011;63175;52.374;13.132;2023-04-06T13:10:16;3.77;;;3.30;;
7158;SDS011;63175;52.374;13.132;2023-04-06T13:12:42;3.43;;;3.13;;
7158;SDS011;63175;52.374;13.132;2023-04-06T13:15:10;2.97;;;2.77;;
7158;SDS011;63175;52.374;13.132;2023-04-06T13:17:37;3.60;;;2.27;;
7158;SDS011;63175;52.374;13.132;2023-04-06T13:20:04;4.00;;;3.20;;
7158;SDS011;63175;52.374;13.132;2023-04-06T13:22:32;3.33;;;3.00;;
7158;SDS011;63175;52.374;13.132;2023-04-06T13:24:59;4.57;;;2.83;;
7158;SDS011;63175;52.374;13.132;2023-04-06T13:27:27;2.63;;;2.40;;
7158;SDS011;63175;52.374;13.132;2023-04-06T13:29:58;3.20;;;2.90;;
7158;SDS011;63175;52.374;13.132;2023-04-06T13:32:25;3.90;;;3.53;;
7158;SDS011;63175;52.374;13.132;2023-04-06T13:34:54;2.60;;;2.40;;
7158;SDS011;63175;52.374;13.132;2023-04-06T13:37:21;2.37;;;2.10;;
7158;SDS011;63175;52.374;13.132;2023-04-06T13:39:48;2.33;;;2.13;;
7158;SDS011;63175;52.374;13.132;2023-04-06T13:42:15;2.43;;;2.23;;
7158;SDS011;63175;52.374;13.132;2023-04-06T13:44:43;3.00;;;2.67;;
7158;SDS011;63175;52.374;13.132;2023-04-06T13:47:11;2.43;;;2.23;;
7158;SDS011;63175;52.374;13.132;2023-04-06T13:49:38;3.17;;;2.60;;
7158;SDS011;63175;52.374;13.132;2023-04-06T13:52:05;2.33;;;2.13;;
7158;SDS011;63175;52.374;13.132;2023-04-06T13:54:32;3.03;;;2.20;;
7158;SDS011;63175;52.374;13.132;2023-04-06T13:56:59;2.43;;;1.97;;
7158;SDS011;63175;52.374;13.132;2023-04-06T13:59:31;3.03;;;2.63;;
7158;SDS011;63175;52.374;13.132;2023-04-06T14:02:00;2.47;;;2.10;;
7158;SDS011;63175;52.374;13.132;2023-04-06T14:04:27;3.73;;;2.40;;
7158;SDS011;63175;52.374;13.132;2023-04-06T14:06:54;4.17;;;2.87;;
7158;SDS011;63175;52.374;13.132;2023-04-06T14:09:20;4.27;;;2.83;;
7158;SDS011;63175;52.374;13.132;2023-04-06T14:11:47;3.03;;;2.73;;
7158;SDS011;63175;52.374;13.132;2023-04-06T14:14:14;4.27;;;3.40;;
7158;SDS011;63175;52.374;13.132;2023-04-06T14:16:41;2.33;;;1.90;;
7158;SDS011;63175;52.374;13.132;2023-04-06T14:19:10;4.23;;;2.93;;
7158;SDS011;63175;52.374;13.132;2023-04-06T14:21:37;4.60;;;2.70;;
7158;SDS011;63175;52.374;13.132;2023-04-06T14:24:04;2.97;;;2.77;;
7158;SDS011;63175;52.374;13.132;2023-04-06T14:26:31;3.63;;;2.50;;
7158;SDS011;63175;52.374;13.132;2023-04-06T14:28:58;2.37;;;2.17;;
7158;SDS011;63175;52.374;13.132;2023-04-06T14:31:26;1.50;;;1.40;;
7158;SDS011;63175;52.374;13.132;2023-04-06T14:33:53;3.17;;;2.90;;
7158;SDS011;63175;52.374;13.132;2023-04-06T14:36:21;3.40;;;3.10;;
7158;SDS011;63175;52.374;13.132;2023-04-06T14:38:48;3.47;;;2.87;;
7158;SDS011;63175;52.374;13.132;2023-04-06T14:41:15;2.70;;;2.50;;
7158;SDS011;63175;52.374;13.132;2023-04-06T14:43:43;2.77;;;2.50;;
7158;SDS011;63175;52.374;13.132;2023-04-06T14:46:10;2.73;;;2.50;;
7158;SDS011;63175;52.374;13.132;2023-04-06T14:48:37;3.67;;;2.37;;
7158;SDS011;63175;52.374;13.132;2023-04-06T14:51:04;2.60;;;2.40;;